createdAt,value
2018-11-11T00:00:12.730Z,99.90
2018-11-11T00:02:41.705Z,99.90
2018-11-11T00:05:11.449Z,99.90
2018-11-11T00:07:40.904Z,99.90
2018-11-11T00:10:09.887Z,99.90
2018-11-11T00:12:39.439Z,99.90
2018-11-11T00:15:10.648Z,99.90
2018-11-11T00:17:40.144Z,99.90
2018-11-11T00:20:09.900Z,99.90
2018-11-11T00:22:39.154Z,99.90
2018-11-11T00:25:08.371Z,99.90
2018-11-11T00:27:38.153Z,99.90
2018-11-11T00:30:11.751Z,99.90
2018-11-11T00:32:40.955Z,99.90
2018-11-11T00:35:10.312Z,99.90
2018-11-11T00:37:39.674Z,99.90
2018-11-11T00:40:09.476Z,99.90
2018-11-11T00:42:38.445Z,99.90
2018-11-11T00:45:08.205Z,99.90
2018-11-11T00:47:37.191Z,99.90
2018-11-11T00:50:07.515Z,99.90
2018-11-11T00:52:36.479Z,99.90
2018-11-11T00:55:07.360Z,99.90
2018-11-11T00:57:36.360Z,99.90
2018-11-11T01:00:07.264Z,99.90
2018-11-11T01:02:36.291Z,99.90
2018-11-11T01:05:06.464Z,99.90
2018-11-11T01:07:35.592Z,99.90
2018-11-11T01:10:05.712Z,99.90
2018-11-11T01:12:34.730Z,99.90
2018-11-11T01:15:03.759Z,99.90
2018-11-11T01:17:32.771Z,99.90
2018-11-11T01:20:01.730Z,99.90
2018-11-11T01:22:30.683Z,99.90
2018-11-11T01:24:59.623Z,99.90
2018-11-11T01:27:28.664Z,99.90
2018-11-11T01:29:58.790Z,99.90
2018-11-11T01:32:27.786Z,99.90
2018-11-11T01:34:56.747Z,99.90
2018-11-11T01:37:25.737Z,99.90
2018-11-11T01:39:54.724Z,99.90
2018-11-11T01:42:23.754Z,99.90
2018-11-11T01:44:52.744Z,99.90
2018-11-11T01:47:21.725Z,99.90
2018-11-11T01:49:50.685Z,99.90
2018-11-11T01:52:19.648Z,99.90
2018-11-11T01:54:48.612Z,99.90
2018-11-11T01:57:17.604Z,99.90
2018-11-11T01:59:46.577Z,99.90
2018-11-11T02:02:15.561Z,99.90
2018-11-11T02:04:44.484Z,99.90
2018-11-11T02:07:13.462Z,99.90
2018-11-11T02:09:42.459Z,99.90
2018-11-11T02:12:11.411Z,99.90
2018-11-11T02:14:40.361Z,99.90
2018-11-11T02:17:09.352Z,99.90
2018-11-11T02:19:38.359Z,99.90
2018-11-11T02:22:07.406Z,99.90
2018-11-11T02:24:36.469Z,99.90
2018-11-11T02:27:06.152Z,99.90
2018-11-11T02:29:35.135Z,99.90
2018-11-11T02:32:04.063Z,99.90
2018-11-11T02:34:33.042Z,99.90
2018-11-11T02:37:02.009Z,99.90
2018-11-11T02:39:31.052Z,99.90
2018-11-11T02:42:00.340Z,99.90
2018-11-11T02:44:29.346Z,99.90
2018-11-11T02:46:58.304Z,99.90
2018-11-11T02:49:27.281Z,99.90
2018-11-11T02:51:56.287Z,99.90
2018-11-11T02:54:25.335Z,99.90
2018-11-11T02:56:54.303Z,99.90
2018-11-11T02:59:23.260Z,99.90
2018-11-11T03:01:52.250Z,99.90
2018-11-11T03:04:21.315Z,99.90
2018-11-11T03:06:50.217Z,99.90
2018-11-11T03:09:19.213Z,99.90
2018-11-11T03:11:48.171Z,99.90
2018-11-11T03:14:17.285Z,99.90
2018-11-11T03:16:46.249Z,99.90
2018-11-11T03:19:15.616Z,99.90
2018-11-11T03:21:44.605Z,99.90
2018-11-11T03:24:13.599Z,99.90
2018-11-11T03:26:42.544Z,99.90
2018-11-11T03:29:11.551Z,99.90
2018-11-11T03:31:40.497Z,99.90
2018-11-11T03:34:10.822Z,99.90
2018-11-11T03:36:39.772Z,99.90
2018-11-11T03:39:09.689Z,99.90
2018-11-11T03:41:39.027Z,99.90
2018-11-11T03:44:08.023Z,99.90
2018-11-11T03:46:36.973Z,99.90
2018-11-11T03:49:05.987Z,99.90
2018-11-11T03:51:34.959Z,99.90
2018-11-11T03:54:03.962Z,99.90
2018-11-11T03:56:32.921Z,99.90
2018-11-11T03:59:01.908Z,99.90
2018-11-11T04:01:30.877Z,99.90
2018-11-11T04:03:59.829Z,99.90
2018-11-11T04:06:29.036Z,99.90
2018-11-11T04:08:58.037Z,99.90
2018-11-11T04:11:27.061Z,99.90
2018-11-11T04:13:56.072Z,99.90
2018-11-11T04:16:25.117Z,99.90
2018-11-11T04:18:54.063Z,99.90
2018-11-11T04:21:23.094Z,99.90
2018-11-11T04:23:52.072Z,99.90
2018-11-11T04:26:21.034Z,99.90
2018-11-11T04:28:49.957Z,99.90
2018-11-11T04:31:18.990Z,99.90
2018-11-11T04:33:47.937Z,99.90
2018-11-11T04:36:17.594Z,99.90
2018-11-11T04:38:46.560Z,99.90
2018-11-11T04:41:15.564Z,99.90
2018-11-11T04:43:45.107Z,99.90
2018-11-11T04:46:14.269Z,99.90
2018-11-11T04:48:43.184Z,99.90
2018-11-11T04:51:13.598Z,99.90
2018-11-11T04:53:42.557Z,99.90
2018-11-11T04:56:11.521Z,99.90
2018-11-11T04:58:40.483Z,99.90
2018-11-11T05:01:09.490Z,99.90
2018-11-11T05:03:38.546Z,99.90
2018-11-11T05:06:07.562Z,99.90
2018-11-11T05:08:36.507Z,99.90
2018-11-11T05:11:05.709Z,99.90
2018-11-11T05:13:34.641Z,99.90
2018-11-11T05:16:03.604Z,99.90
2018-11-11T05:18:32.558Z,99.90
2018-11-11T05:21:01.528Z,99.90
2018-11-11T05:23:30.493Z,99.90
2018-11-11T05:25:59.468Z,99.90
2018-11-11T05:28:29.131Z,99.90
2018-11-11T05:30:58.208Z,99.90
2018-11-11T05:33:27.149Z,99.90
2018-11-11T05:35:56.134Z,99.90
2018-11-11T05:38:25.083Z,99.90
2018-11-11T05:40:54.084Z,99.90
2018-11-11T05:43:23.061Z,99.90
2018-11-11T05:45:52.057Z,99.90
2018-11-11T05:48:21.515Z,99.90
2018-11-11T05:50:50.491Z,99.90
2018-11-11T05:53:19.431Z,99.90
2018-11-11T05:55:48.371Z,99.90
2018-11-11T05:58:17.677Z,99.90
2018-11-11T06:00:46.728Z,99.90
2018-11-11T06:03:15.694Z,99.90
2018-11-11T06:05:44.709Z,99.90
2018-11-11T06:08:13.703Z,99.90
2018-11-11T06:10:44.129Z,99.90
2018-11-11T06:13:13.132Z,99.90
2018-11-11T06:15:42.081Z,99.90
2018-11-11T06:18:11.097Z,99.90
2018-11-11T06:20:40.294Z,99.90
2018-11-11T06:23:12.033Z,99.90
2018-11-11T06:25:41.813Z,99.90
2018-11-11T06:28:11.981Z,99.90
2018-11-11T06:30:41.234Z,99.90
2018-11-11T06:33:10.246Z,99.90
2018-11-11T06:35:39.192Z,99.90
2018-11-11T06:38:08.158Z,99.90
2018-11-11T06:40:41.756Z,99.90
2018-11-11T06:43:10.729Z,99.90
2018-11-11T06:45:39.690Z,99.90
2018-11-11T06:48:08.751Z,99.90
2018-11-11T06:50:37.654Z,99.90
2018-11-11T06:53:06.627Z,99.90
2018-11-11T06:55:35.586Z,99.90
2018-11-11T06:58:04.901Z,99.90
2018-11-11T07:00:33.810Z,99.90
2018-11-11T07:03:14.357Z,99.90
2018-11-11T07:05:43.315Z,99.90
2018-11-11T07:08:12.318Z,99.90
2018-11-11T07:10:41.293Z,99.90
2018-11-11T07:13:10.333Z,99.90
2018-11-11T07:15:39.325Z,99.90
2018-11-11T07:18:08.323Z,99.90
2018-11-11T07:20:37.264Z,99.90
2018-11-11T07:23:06.828Z,99.90
2018-11-11T07:25:35.787Z,99.90
2018-11-11T07:28:05.246Z,99.90
2018-11-11T07:30:34.684Z,99.90
2018-11-11T07:33:03.676Z,99.90
2018-11-11T07:35:33.912Z,99.90
2018-11-11T07:38:02.907Z,99.90
2018-11-11T07:40:31.928Z,99.90
2018-11-11T07:43:00.949Z,99.90
2018-11-11T07:45:29.891Z,99.90
2018-11-11T07:47:58.937Z,99.90
2018-11-11T07:50:27.848Z,99.90
2018-11-11T07:52:56.918Z,99.90
2018-11-11T07:55:25.914Z,99.90
2018-11-11T07:57:54.911Z,99.90
2018-11-11T08:00:26.057Z,99.90
2018-11-11T08:02:55.549Z,99.90
2018-11-11T08:05:24.512Z,99.90
2018-11-11T08:07:53.487Z,99.90
2018-11-11T08:10:33.720Z,99.90
2018-11-11T08:13:02.796Z,99.90
2018-11-11T08:15:32.422Z,99.90
2018-11-11T08:18:01.483Z,99.90
2018-11-11T08:20:31.511Z,99.90
2018-11-11T08:23:00.550Z,99.90
2018-11-11T08:25:29.526Z,99.90
2018-11-11T08:27:58.807Z,99.90
2018-11-11T08:30:27.755Z,99.90
2018-11-11T08:32:56.784Z,99.90
2018-11-11T08:35:25.743Z,99.90
2018-11-11T08:37:54.717Z,99.90
2018-11-11T08:40:23.747Z,99.90
2018-11-11T08:42:53.160Z,99.90
2018-11-11T08:45:22.087Z,99.90
2018-11-11T08:47:51.068Z,99.90
2018-11-11T08:50:19.989Z,99.90
2018-11-11T08:52:48.957Z,99.90
2018-11-11T08:55:17.934Z,99.90
2018-11-11T08:57:46.988Z,99.90
2018-11-11T09:00:15.880Z,99.90
2018-11-11T09:02:44.888Z,99.90
2018-11-11T09:05:13.979Z,99.90
2018-11-11T09:07:42.972Z,99.90
2018-11-11T09:10:12.654Z,99.90
2018-11-11T09:12:41.657Z,99.90
2018-11-11T09:15:12.576Z,99.90
2018-11-11T09:17:41.908Z,99.90
2018-11-11T09:20:16.058Z,99.90
2018-11-11T09:22:45.639Z,99.90
2018-11-11T09:25:14.650Z,99.90
2018-11-11T09:27:43.679Z,99.90
2018-11-11T09:30:14.168Z,99.90
2018-11-11T09:32:43.477Z,99.90
2018-11-11T09:35:12.561Z,99.90
2018-11-11T09:37:41.837Z,99.90
2018-11-11T09:40:11.895Z,99.90
2018-11-11T09:42:41.026Z,99.90
2018-11-11T09:45:11.826Z,99.90
2018-11-11T09:47:40.958Z,99.90
2018-11-11T09:50:11.759Z,99.90
2018-11-11T09:52:40.949Z,99.90
2018-11-11T09:55:11.160Z,99.90
2018-11-11T09:57:40.564Z,99.90
2018-11-11T10:00:14.273Z,99.90
2018-11-11T10:02:44.611Z,99.90
2018-11-11T10:06:18.739Z,99.90
2018-11-11T10:08:53.149Z,99.90
2018-11-11T10:11:30.031Z,99.90
2018-11-11T10:14:04.466Z,99.90
2018-11-11T10:16:38.771Z,99.90
2018-11-11T10:21:16.757Z,99.90
2018-11-11T10:23:51.535Z,99.90
2018-11-11T10:26:28.009Z,99.90
2018-11-11T10:29:20.735Z,99.90
2018-11-11T10:32:00.940Z,99.90
2018-11-11T10:35:04.233Z,99.90
2018-11-11T10:37:38.819Z,99.90
2018-11-11T10:40:14.392Z,99.90
2018-11-11T10:42:54.971Z,99.90
2018-11-11T10:45:28.976Z,99.90
2018-11-11T10:48:03.588Z,99.90
2018-11-11T10:50:39.448Z,99.90
2018-11-11T10:53:08.568Z,99.90
2018-11-11T10:55:37.568Z,99.90
2018-11-11T10:58:06.657Z,99.90
2018-11-11T11:00:41.184Z,99.90
2018-11-11T11:03:15.510Z,99.90
2018-11-11T11:05:44.516Z,99.90
2018-11-11T11:08:13.480Z,99.80
2018-11-11T11:10:42.733Z,99.80
2018-11-11T11:13:11.910Z,99.90
2018-11-11T11:15:40.900Z,99.80
2018-11-11T11:18:09.850Z,99.90
2018-11-11T11:20:38.818Z,99.90
2018-11-11T11:23:07.899Z,99.40
2018-11-11T11:25:36.829Z,99.50
2018-11-11T11:28:05.852Z,99.60
2018-11-11T11:30:34.822Z,99.00
2018-11-11T11:33:03.810Z,98.80
2018-11-11T11:35:32.858Z,98.70
2018-11-11T11:38:01.878Z,99.10
2018-11-11T11:40:30.968Z,98.10
2018-11-11T11:42:59.929Z,98.30
2018-11-11T11:45:28.897Z,98.10
2018-11-11T11:47:57.882Z,97.30
2018-11-11T11:50:26.938Z,97.30
2018-11-11T11:52:55.838Z,96.70
2018-11-11T11:55:24.833Z,96.60
2018-11-11T11:58:22.564Z,96.50
2018-11-11T12:00:51.643Z,96.30
2018-11-11T12:03:20.609Z,96.50
2018-11-11T12:05:49.637Z,95.90
2018-11-11T12:08:18.650Z,96.00
2018-11-11T12:10:47.617Z,95.80
2018-11-11T12:13:17.093Z,95.90
2018-11-11T12:15:46.168Z,95.40
2018-11-11T12:18:15.146Z,95.80
2018-11-11T12:20:44.222Z,95.50
2018-11-11T12:23:13.341Z,95.60
2018-11-11T12:25:42.517Z,95.60
2018-11-11T12:28:11.508Z,95.70
2018-11-11T12:30:40.499Z,95.60
2018-11-11T12:33:09.463Z,95.60
2018-11-11T12:35:38.465Z,95.00
2018-11-11T12:38:07.464Z,95.20
2018-11-11T12:40:36.471Z,95.50
2018-11-11T12:43:05.479Z,95.30
2018-11-11T12:45:34.484Z,95.30
2018-11-11T12:48:03.473Z,94.90
2018-11-11T12:50:35.400Z,94.90
2018-11-11T12:53:05.066Z,95.00
2018-11-11T12:55:34.545Z,94.80
2018-11-11T12:58:04.957Z,95.10
2018-11-11T13:00:33.928Z,94.90
2018-11-11T13:03:03.390Z,94.90
2018-11-11T13:05:32.328Z,95.10
2018-11-11T13:08:01.337Z,95.00
2018-11-11T13:10:30.343Z,95.30
2018-11-11T13:12:59.373Z,95.30
2018-11-11T13:15:28.380Z,94.70
2018-11-11T13:17:57.358Z,94.80
2018-11-11T13:20:26.346Z,95.00
2018-11-11T13:22:55.487Z,94.90
2018-11-11T13:25:24.359Z,95.30
2018-11-11T13:27:53.430Z,94.90
2018-11-11T13:30:22.362Z,95.20
2018-11-11T13:32:51.409Z,95.20
2018-11-11T13:35:20.389Z,95.40
2018-11-11T13:37:49.414Z,95.30
2018-11-11T13:40:19.391Z,95.20
2018-11-11T13:42:48.397Z,95.20
2018-11-11T13:45:19.615Z,95.10
2018-11-11T13:47:49.161Z,95.70
2018-11-11T13:50:20.456Z,95.40
2018-11-11T13:52:49.618Z,95.00
2018-11-11T13:55:19.301Z,94.90
2018-11-11T13:57:48.806Z,95.30
2018-11-11T14:00:23.220Z,95.50
2018-11-11T14:02:52.178Z,95.80
2018-11-11T14:05:21.695Z,95.90
2018-11-11T14:07:52.091Z,95.30
2018-11-11T14:10:21.015Z,95.80
2018-11-11T14:12:49.983Z,95.70
2018-11-11T14:15:22.434Z,95.30
2018-11-11T14:17:51.735Z,95.50
2018-11-11T14:20:21.962Z,95.50
2018-11-11T14:22:52.498Z,95.30
2018-11-11T14:25:24.255Z,95.60
2018-11-11T14:27:53.220Z,95.50
2018-11-11T14:30:23.542Z,95.60
2018-11-11T14:32:54.862Z,96.20
2018-11-11T14:35:24.025Z,95.70
2018-11-11T14:37:53.554Z,95.80
2018-11-11T14:40:24.639Z,96.10
2018-11-11T14:42:53.664Z,95.80
2018-11-11T14:45:23.138Z,96.60
2018-11-11T14:47:53.377Z,97.40
2018-11-11T14:50:23.044Z,96.60
2018-11-11T14:52:52.188Z,96.30
2018-11-11T14:55:25.500Z,96.30
2018-11-11T14:58:01.965Z,96.30
2018-11-11T15:00:32.256Z,96.10
2018-11-11T15:03:03.624Z,96.20
2018-11-11T15:05:32.790Z,95.90
2018-11-11T15:08:02.693Z,96.00
2018-11-11T15:10:31.739Z,96.00
2018-11-11T15:13:00.720Z,96.70
2018-11-11T15:15:29.660Z,97.30
2018-11-11T15:17:59.615Z,97.00
2018-11-11T15:20:28.656Z,96.30
2018-11-11T15:22:58.284Z,96.40
2018-11-11T15:25:28.566Z,96.90
2018-11-11T15:28:00.553Z,97.00
2018-11-11T15:30:30.859Z,96.90
2018-11-11T15:33:00.451Z,96.70
2018-11-11T15:35:29.739Z,96.40
2018-11-11T15:37:58.742Z,96.40
2018-11-11T15:40:31.127Z,97.20
2018-11-11T15:43:00.144Z,96.60
2018-11-11T15:45:30.321Z,96.80
2018-11-11T15:47:59.520Z,96.70
2018-11-11T15:50:29.770Z,96.20
2018-11-11T15:52:59.984Z,96.30
2018-11-11T15:55:30.212Z,96.40
2018-11-11T15:57:59.180Z,96.30
2018-11-11T16:00:30.485Z,97.60
2018-11-11T16:02:59.426Z,96.70
2018-11-11T16:05:28.409Z,96.90
2018-11-11T16:07:59.521Z,96.90
2018-11-11T16:10:29.804Z,97.10
2018-11-11T16:12:58.800Z,97.50
2018-11-11T16:15:36.396Z,97.80
2018-11-11T16:18:07.405Z,98.90
2018-11-11T16:20:36.378Z,99.90
2018-11-11T16:23:06.318Z,99.90
2018-11-11T16:25:35.565Z,99.90
2018-11-11T16:28:06.334Z,99.90
2018-11-11T16:30:36.928Z,99.90
2018-11-11T16:33:07.570Z,99.90
2018-11-11T16:35:36.554Z,99.90
2018-11-11T16:38:06.230Z,99.90
2018-11-11T16:40:36.533Z,99.90
2018-11-11T16:43:05.440Z,99.90
2018-11-11T16:45:35.284Z,99.90
2018-11-11T16:48:04.701Z,99.90
2018-11-11T16:50:34.710Z,99.90
2018-11-11T16:53:05.939Z,99.90
2018-11-11T16:55:35.616Z,99.90
2018-11-11T16:58:04.676Z,99.90
2018-11-11T17:00:34.996Z,99.90
2018-11-11T17:03:04.876Z,99.90
2018-11-11T17:05:35.005Z,99.90
2018-11-11T17:08:05.080Z,99.90
2018-11-11T17:10:35.363Z,99.90
2018-11-11T17:13:06.287Z,99.90
2018-11-11T17:15:35.330Z,99.90
2018-11-11T17:18:04.304Z,99.90
2018-11-11T17:20:33.378Z,99.90
2018-11-11T17:23:04.797Z,99.90
2018-11-11T17:25:33.760Z,99.90
2018-11-11T17:28:02.827Z,99.90
2018-11-11T17:30:39.552Z,99.90
2018-11-11T17:33:11.489Z,99.90
2018-11-11T17:35:41.318Z,99.90
2018-11-11T17:38:13.756Z,99.90
2018-11-11T17:40:43.165Z,99.90
2018-11-11T17:43:22.189Z,99.90
2018-11-11T17:45:52.631Z,99.90
2018-11-11T17:48:29.380Z,99.90
2018-11-11T17:51:04.752Z,99.90
2018-11-11T17:53:40.140Z,99.90
2018-11-11T17:56:15.155Z,99.90
2018-11-11T17:58:51.438Z,99.90
2018-11-11T18:01:26.856Z,99.90
2018-11-11T18:03:59.585Z,99.90
2018-11-11T18:06:32.754Z,99.90
2018-11-11T18:09:08.763Z,99.90
2018-11-11T18:11:48.524Z,99.90
2018-11-11T18:14:23.102Z,99.90
2018-11-11T18:16:57.961Z,99.90
2018-11-11T18:19:28.123Z,99.90
2018-11-11T18:21:57.717Z,99.90
2018-11-11T18:24:26.682Z,99.90
2018-11-11T18:26:55.711Z,99.90
2018-11-11T18:29:24.739Z,99.90
2018-11-11T18:31:53.857Z,99.90
2018-11-11T18:34:23.053Z,99.90
2018-11-11T18:36:52.057Z,99.90
2018-11-11T18:39:21.144Z,99.90
2018-11-11T18:41:50.143Z,99.90
2018-11-11T18:44:19.345Z,99.90
2018-11-11T18:46:48.328Z,99.90
2018-11-11T18:49:17.316Z,99.90
2018-11-11T18:51:46.514Z,99.90
2018-11-11T18:54:15.561Z,99.90
2018-11-11T18:56:45.322Z,99.90
2018-11-11T18:59:14.355Z,99.90
2018-11-11T19:01:43.338Z,99.90
2018-11-11T19:04:12.722Z,99.90
2018-11-11T19:06:41.757Z,99.90
2018-11-11T19:09:12.537Z,99.90
2018-11-11T19:11:41.491Z,99.90
2018-11-11T19:14:10.466Z,99.90
2018-11-11T19:16:39.508Z,99.90
2018-11-11T19:19:08.950Z,99.90
2018-11-11T19:21:37.970Z,99.90
2018-11-11T19:24:08.063Z,99.90
2018-11-11T19:26:37.543Z,99.90
2018-11-11T19:29:06.581Z,99.90
2018-11-11T19:31:35.532Z,99.90
2018-11-11T19:34:04.808Z,99.90
2018-11-11T19:36:33.783Z,99.90
2018-11-11T19:39:03.031Z,99.90
2018-11-11T19:41:32.159Z,99.90
2018-11-11T19:44:01.104Z,99.90
2018-11-11T19:46:30.065Z,99.90
2018-11-11T19:48:59.105Z,99.90
2018-11-11T19:51:28.091Z,99.90
2018-11-11T19:53:57.159Z,99.90
2018-11-11T19:56:26.121Z,99.90
2018-11-11T19:58:55.093Z,99.90
2018-11-11T20:01:24.442Z,99.90
2018-11-11T20:03:53.640Z,99.90
2018-11-11T20:06:22.633Z,99.90
2018-11-11T20:08:56.144Z,99.90
2018-11-11T20:11:25.733Z,99.90
2018-11-11T20:13:54.824Z,99.90
2018-11-11T20:16:23.879Z,99.90
2018-11-11T20:18:53.517Z,99.90
2018-11-11T20:21:22.509Z,99.90
2018-11-11T20:23:51.539Z,99.90
2018-11-11T20:26:20.552Z,99.90
2018-11-11T20:28:49.507Z,99.90
2018-11-11T20:31:18.539Z,99.90
2018-11-11T20:33:47.564Z,99.90
2018-11-11T20:36:16.618Z,99.90
2018-11-11T20:38:45.645Z,99.90
2018-11-11T20:41:14.594Z,99.90
2018-11-11T20:43:43.604Z,99.90
2018-11-11T20:46:12.683Z,99.90
2018-11-11T20:48:41.614Z,99.90
2018-11-11T20:51:10.571Z,99.90
2018-11-11T20:53:39.520Z,99.90
2018-11-11T20:56:08.568Z,99.90
2018-11-11T20:58:37.489Z,99.90
2018-11-11T21:01:06.483Z,99.90
2018-11-11T21:03:35.443Z,99.90
2018-11-11T21:06:04.441Z,99.90
2018-11-11T21:08:34.181Z,99.90
2018-11-11T21:11:03.127Z,99.90
2018-11-11T21:13:32.048Z,99.90
2018-11-11T21:16:00.986Z,99.90
2018-11-11T21:18:29.948Z,99.90
2018-11-11T21:20:58.945Z,99.90
2018-11-11T21:23:27.924Z,99.90
2018-11-11T21:25:56.925Z,99.90
2018-11-11T21:28:25.876Z,99.90
2018-11-11T21:30:54.844Z,99.90
2018-11-11T21:33:23.768Z,99.90
2018-11-11T21:35:52.736Z,99.90
2018-11-11T21:38:21.758Z,99.90
2018-11-11T21:40:50.752Z,99.90
2018-11-11T21:43:21.141Z,99.90
2018-11-11T21:45:51.702Z,99.90
2018-11-11T21:48:20.722Z,99.90
2018-11-11T21:50:49.705Z,99.90
2018-11-11T21:53:35.983Z,99.90
2018-11-11T21:56:05.296Z,99.90
2018-11-11T21:58:34.310Z,99.90
2018-11-11T22:01:04.008Z,99.90
2018-11-11T22:03:33.821Z,99.90
2018-11-11T22:06:03.091Z,99.90
2018-11-11T22:08:39.278Z,99.90
2018-11-11T22:13:39.879Z,99.90
2018-11-11T22:16:10.062Z,99.90
2018-11-11T22:18:39.011Z,99.90
2018-11-11T22:21:08.013Z,99.90
2018-11-11T22:23:37.017Z,99.90
2018-11-11T22:26:05.995Z,99.90
2018-11-11T22:28:34.990Z,99.90
2018-11-11T22:31:03.969Z,99.90
2018-11-11T22:33:33.012Z,99.90
2018-11-11T22:36:01.943Z,99.90
2018-11-11T22:38:30.936Z,99.90
2018-11-11T22:40:59.923Z,99.90
2018-11-11T22:43:28.868Z,99.90
2018-11-11T22:45:57.844Z,99.90
2018-11-11T22:48:26.824Z,99.90
2018-11-11T22:50:55.766Z,99.90
2018-11-11T22:53:24.888Z,99.90
2018-11-11T22:55:53.830Z,99.90
2018-11-11T22:58:22.786Z,99.90
2018-11-11T23:00:57.059Z,99.90
2018-11-11T23:03:26.005Z,99.90
2018-11-11T23:05:54.937Z,99.90
2018-11-11T23:08:23.942Z,99.90
2018-11-11T23:10:52.914Z,99.90
2018-11-11T23:13:21.876Z,99.90
2018-11-11T23:15:50.884Z,99.90
2018-11-11T23:18:19.820Z,99.90
2018-11-11T23:20:48.781Z,99.90
2018-11-11T23:23:17.761Z,99.90
2018-11-11T23:25:46.718Z,99.90
2018-11-11T23:28:15.793Z,99.90
2018-11-11T23:30:44.756Z,99.90
2018-11-11T23:33:13.737Z,99.90
2018-11-11T23:35:42.683Z,99.90
2018-11-11T23:38:11.634Z,99.90
2018-11-11T23:40:40.583Z,99.90
2018-11-11T23:43:09.557Z,99.90
2018-11-11T23:45:39.617Z,99.90
2018-11-11T23:48:08.617Z,99.90
2018-11-11T23:50:37.568Z,99.90
2018-11-11T23:53:06.504Z,99.90
2018-11-11T23:55:35.481Z,99.90
2018-11-11T23:58:04.492Z,99.90
